createdAt,value
2022-11-18T00:00:56.717Z,97355.19
2022-11-18T00:03:23.740Z,97356.22
2022-11-18T00:05:57.674Z,97360.41
2022-11-18T00:08:25.800Z,97359.56
2022-11-18T00:10:54.064Z,97368.06
2022-11-18T00:13:39.467Z,97360.78
2022-11-18T00:16:08.760Z,97360.78
2022-11-18T00:18:35.511Z,97353.75
2022-11-18T00:21:09.757Z,97352.91
2022-11-18T00:23:37.305Z,97349.59
2022-11-18T00:26:05.915Z,97343.59
2022-11-18T00:28:33.723Z,97351.47
2022-11-18T00:31:05.359Z,97350.22
2022-11-18T00:33:32.346Z,97359.75
2022-11-18T00:35:59.043Z,97364.09
2022-11-18T00:38:26.784Z,97362.22
2022-11-18T00:41:11.295Z,97364.09
2022-11-18T00:43:38.568Z,97362.03
2022-11-18T00:46:08.200Z,97364.28
2022-11-18T00:48:35.512Z,97364.28
2022-11-18T00:51:17.150Z,97362.41
2022-11-18T00:53:44.595Z,97360.53
2022-11-18T00:56:11.694Z,97352.63
2022-11-18T00:58:38.514Z,97350.34
2022-11-18T01:01:05.345Z,97359.09
2022-11-18T01:03:32.085Z,97352.22
2022-11-18T01:05:58.758Z,97349.50
2022-11-18T01:08:26.057Z,97353.03
2022-11-18T01:10:52.811Z,97359.00
2022-11-18T01:13:22.929Z,97359.25
2022-11-18T01:15:58.165Z,97357.50
2022-11-18T01:18:27.962Z,97363.06
2022-11-18T01:20:59.992Z,97362.03
2022-11-18T01:23:26.627Z,97365.56
2022-11-18T01:25:53.434Z,97355.56
2022-11-18T01:28:23.528Z,97361.34
2022-11-18T01:30:51.097Z,97357.59
2022-11-18T01:33:17.918Z,97369.00
2022-11-18T01:35:44.836Z,97373.53
2022-11-18T01:38:13.831Z,97381.63
2022-11-18T01:40:40.954Z,97378.09
2022-11-18T01:43:14.123Z,97370.44
2022-11-18T01:45:43.628Z,97377.88
2022-11-18T01:48:33.625Z,97366.66
2022-11-18T01:51:11.076Z,97356.28
2022-11-18T01:53:50.033Z,97372.44
2022-11-18T01:56:26.772Z,97363.97
2022-11-18T01:58:59.226Z,97352.34
2022-11-18T02:01:25.803Z,97352.94
2022-11-18T02:03:53.939Z,97362.59
2022-11-18T02:06:21.156Z,97361.63
2022-11-18T02:08:49.160Z,97352.91
2022-11-18T02:11:34.537Z,97364.88
2022-11-18T02:14:04.449Z,97360.91
2022-11-18T02:17:05.995Z,97370.97
2022-11-18T02:19:47.633Z,97368.53
2022-11-18T02:22:23.558Z,97364.75
2022-11-18T02:25:10.780Z,97367.72
2022-11-18T02:27:55.917Z,97372.25
2022-11-18T02:30:22.629Z,97378.06
2022-11-18T02:32:56.740Z,97383.66
2022-11-18T02:35:44.137Z,97380.97
2022-11-18T02:38:10.635Z,97380.88
2022-11-18T02:40:43.313Z,97364.91
2022-11-18T02:43:16.963Z,97371.78
2022-11-18T02:45:49.485Z,97368.69
2022-11-18T02:48:19.686Z,97358.53
2022-11-18T02:50:49.659Z,97369.34
2022-11-18T02:53:20.598Z,97363.16
2022-11-18T02:55:48.328Z,97360.31
2022-11-18T02:58:18.026Z,97358.63
2022-11-18T03:00:45.004Z,97372.31
2022-11-18T03:03:26.871Z,97368.13
2022-11-18T03:06:04.529Z,97369.38
2022-11-18T03:08:38.611Z,97368.28
2022-11-18T03:11:14.539Z,97370.56
2022-11-18T03:14:03.884Z,97372.63
2022-11-18T03:16:54.778Z,97362.63
2022-11-18T03:19:36.694Z,97368.88
2022-11-18T03:22:28.943Z,97370.69
2022-11-18T03:25:13.899Z,97376.72
2022-11-18T03:28:12.934Z,97372.75
2022-11-18T03:30:46.329Z,97382.09
2022-11-18T03:33:18.251Z,97372.06
2022-11-18T03:35:50.482Z,97377.84
2022-11-18T03:38:23.482Z,97380.31
2022-11-18T03:40:57.444Z,97374.50
2022-11-18T03:43:27.336Z,97382.97
2022-11-18T03:46:01.237Z,97388.97
2022-11-18T03:48:34.225Z,97391.78
2022-11-18T03:51:09.843Z,97391.78
2022-11-18T03:53:49.567Z,97390.72
2022-11-18T03:56:22.620Z,97386.38
2022-11-18T03:59:04.458Z,97380.94
2022-11-18T04:01:44.009Z,97379.44
2022-11-18T04:04:11.658Z,97376.97
2022-11-18T04:06:40.093Z,97376.13
2022-11-18T04:09:15.133Z,97384.38
2022-11-18T04:12:05.126Z,97386.69
2022-11-18T04:14:32.838Z,97393.84
2022-11-18T04:16:59.425Z,97396.34
2022-11-18T04:19:26.097Z,97392.00
2022-11-18T04:21:52.768Z,97394.88
2022-11-18T04:24:19.412Z,97396.50
2022-11-18T04:26:45.998Z,97397.31
2022-11-18T04:29:12.694Z,97400.00
2022-11-18T04:31:39.334Z,97410.09
2022-11-18T04:34:05.909Z,97416.75
2022-11-18T04:36:32.488Z,97408.81
2022-11-18T04:38:59.148Z,97397.88
2022-11-18T04:41:45.763Z,97395.00
2022-11-18T04:44:15.647Z,97402.81
2022-11-18T04:46:43.407Z,97398.91
2022-11-18T04:49:12.675Z,97397.06
2022-11-18T04:51:40.295Z,97390.00
2022-11-18T04:54:07.503Z,97387.31
2022-11-18T04:56:34.139Z,97392.31
2022-11-18T04:59:02.787Z,97385.88
2022-11-18T05:01:30.139Z,97394.63
2022-11-18T05:03:57.086Z,97397.69
2022-11-18T05:06:24.213Z,97387.59
2022-11-18T05:08:50.893Z,97402.69
2022-11-18T05:11:36.044Z,97408.13
2022-11-18T05:14:02.774Z,97403.53
2022-11-18T05:16:29.358Z,97407.22
2022-11-18T05:18:56.123Z,97408.06
2022-11-18T05:21:22.734Z,97404.53
2022-11-18T05:23:49.726Z,97410.66
2022-11-18T05:26:16.310Z,97415.69
2022-11-18T05:28:42.994Z,97418.28
2022-11-18T05:31:17.472Z,97417.00
2022-11-18T05:33:45.004Z,97418.50
2022-11-18T05:36:14.692Z,97423.66
2022-11-18T05:38:41.718Z,97424.22
2022-11-18T05:41:08.930Z,97422.38
2022-11-18T05:43:37.102Z,97417.00
2022-11-18T05:46:04.232Z,97424.31
2022-11-18T05:48:30.917Z,97426.34
2022-11-18T05:50:57.599Z,97421.88
2022-11-18T05:53:25.403Z,97427.88
2022-11-18T05:56:07.423Z,97427.59
2022-11-18T05:58:33.997Z,97413.94
2022-11-18T06:01:04.083Z,97422.75
2022-11-18T06:03:33.312Z,97430.56
2022-11-18T06:06:03.365Z,97416.09
2022-11-18T06:08:35.293Z,97418.03
2022-11-18T06:11:02.325Z,97419.78
2022-11-18T06:13:37.209Z,97421.25
2022-11-18T06:16:04.184Z,97417.84
2022-11-18T06:18:32.714Z,97416.41
2022-11-18T06:21:03.552Z,97419.22
2022-11-18T06:23:35.369Z,97413.22
2022-11-18T06:26:02.391Z,97420.75
2022-11-18T06:28:29.771Z,97415.03
2022-11-18T06:30:56.359Z,97418.38
2022-11-18T06:33:22.958Z,97420.28
2022-11-18T06:35:49.546Z,97423.59
2022-11-18T06:38:16.235Z,97419.69
2022-11-18T06:40:44.801Z,97417.22
2022-11-18T06:43:30.759Z,97416.25
2022-11-18T06:46:33.378Z,97417.94
2022-11-18T06:49:01.248Z,97428.38
2022-11-18T06:51:28.652Z,97424.41
2022-11-18T06:53:55.298Z,97417.16
2022-11-18T06:56:23.300Z,97420.03
2022-11-18T06:58:58.657Z,97417.00
2022-11-18T07:01:28.071Z,97416.19
2022-11-18T07:03:55.137Z,97418.28
2022-11-18T07:06:24.640Z,97413.13
2022-11-18T07:08:52.102Z,97416.47
2022-11-18T07:11:21.720Z,97414.78
2022-11-18T07:13:48.413Z,97408.19
2022-11-18T07:16:17.729Z,97404.03
2022-11-18T07:18:45.900Z,97402.56
2022-11-18T07:21:18.217Z,97403.00
2022-11-18T07:23:45.712Z,97405.28
2022-11-18T07:26:13.621Z,97413.56
2022-11-18T07:28:40.696Z,97399.03
2022-11-18T07:31:15.228Z,97412.75
2022-11-18T07:33:42.678Z,97404.88
2022-11-18T07:36:10.957Z,97414.38
2022-11-18T07:38:37.919Z,97413.78
2022-11-18T07:41:09.331Z,97423.13
2022-11-18T07:43:36.651Z,97412.94
2022-11-18T07:46:21.266Z,97420.41
2022-11-18T07:48:51.100Z,97424.13
2022-11-18T07:51:20.648Z,97415.38
2022-11-18T07:53:47.929Z,97424.72
2022-11-18T07:56:15.256Z,97419.50
2022-11-18T07:58:42.835Z,97418.91
2022-11-18T08:01:15.490Z,97417.78
2022-11-18T08:03:42.719Z,97418.13
2022-11-18T08:06:11.242Z,97415.34
2022-11-18T08:08:38.429Z,97412.31
2022-11-18T08:11:07.751Z,97418.25
2022-11-18T08:13:34.943Z,97421.75
2022-11-18T08:16:02.448Z,97426.72
2022-11-18T08:18:30.787Z,97418.53
2022-11-18T08:21:03.029Z,97421.53
2022-11-18T08:23:33.090Z,97410.78
2022-11-18T08:26:15.338Z,97427.63
2022-11-18T08:28:43.162Z,97426.13
2022-11-18T08:31:15.583Z,97426.28
2022-11-18T08:33:42.263Z,97428.66
2022-11-18T08:36:24.648Z,97420.44
2022-11-18T08:38:51.261Z,97420.59
2022-11-18T08:41:25.460Z,97413.59
2022-11-18T08:43:52.063Z,97411.88
2022-11-18T08:46:18.631Z,97416.81
2022-11-18T08:48:45.311Z,97422.34
2022-11-18T08:51:13.100Z,97428.84
2022-11-18T08:53:40.161Z,97422.28
2022-11-18T08:56:07.469Z,97423.06
2022-11-18T08:58:34.132Z,97420.81
2022-11-18T09:01:06.243Z,97417.59
2022-11-18T09:03:32.940Z,97420.94
2022-11-18T09:06:20.135Z,97426.16
2022-11-18T09:08:46.992Z,97423.63
2022-11-18T09:11:21.709Z,97421.09
2022-11-18T09:16:38.419Z,97415.97
2022-11-18T09:19:24.797Z,97411.72
2022-11-18T09:21:51.952Z,97407.28
2022-11-18T09:24:18.941Z,97408.84
2022-11-18T09:26:45.795Z,97414.59
2022-11-18T09:29:12.379Z,97413.41
2022-11-18T09:31:38.973Z,97415.75
2022-11-18T09:34:05.555Z,97424.19
2022-11-18T09:36:32.156Z,97431.84
2022-11-18T09:38:59.956Z,97421.03
2022-11-18T09:41:45.192Z,97428.06
2022-11-18T09:44:33.435Z,97430.97
2022-11-18T09:47:24.934Z,97427.41
2022-11-18T09:49:52.343Z,97430.13
2022-11-18T09:52:32.678Z,97421.03
2022-11-18T09:55:04.074Z,97411.97
2022-11-18T09:57:44.259Z,97398.63
2022-11-18T10:00:28.034Z,97396.88
2022-11-18T10:02:59.099Z,97384.22
2022-11-18T10:05:29.399Z,97387.84
2022-11-18T10:08:10.884Z,97390.81
2022-11-18T10:10:49.759Z,97398.50
2022-11-18T10:13:46.329Z,97402.78
2022-11-18T10:16:23.174Z,97402.41
2022-11-18T10:19:16.756Z,97394.19
2022-11-18T10:22:19.408Z,97366.00
2022-11-18T10:24:53.645Z,97369.59
2022-11-18T10:27:21.080Z,97358.69
2022-11-18T10:29:55.691Z,97368.41
2022-11-18T10:32:22.389Z,97372.00
2022-11-18T10:34:54.299Z,97375.97
2022-11-18T10:38:05.835Z,97375.66
2022-11-18T10:40:26.415Z,97363.41
2022-11-18T10:42:53.130Z,97372.72
2022-11-18T10:45:22.442Z,97369.41
2022-11-18T10:47:57.808Z,97370.09
2022-11-18T10:50:37.782Z,97367.81
2022-11-18T10:53:06.898Z,97351.97
2022-11-18T10:55:34.278Z,97349.69
2022-11-18T10:58:16.237Z,97342.97
2022-11-18T11:00:46.515Z,97347.00
2022-11-18T11:03:26.654Z,97334.22
2022-11-18T11:06:29.945Z,97334.22
2022-11-18T11:09:02.640Z,97321.34
2022-11-18T11:11:39.979Z,97311.97
2022-11-18T11:14:14.839Z,97307.59
2022-11-18T11:16:52.849Z,97303.00
2022-11-18T11:19:23.408Z,97299.03
2022-11-18T11:21:50.984Z,97301.63
2022-11-18T11:24:17.865Z,97300.44
2022-11-18T11:29:53.947Z,97296.59
2022-11-18T11:32:42.823Z,97296.72
2022-11-18T11:35:33.214Z,97287.72
2022-11-18T11:38:05.174Z,97287.91
2022-11-18T11:41:04.236Z,97285.63
2022-11-18T11:44:04.673Z,97279.50
2022-11-18T11:46:43.257Z,97283.63
2022-11-18T11:49:26.517Z,97281.88
2022-11-18T11:51:58.431Z,97271.16
2022-11-18T11:54:40.245Z,97260.16
2022-11-18T11:57:15.511Z,97246.88
2022-11-18T11:59:46.636Z,97240.47
2022-11-18T12:02:19.059Z,97227.50
2022-11-18T12:04:53.898Z,97211.34
2022-11-18T12:07:30.881Z,97208.16
2022-11-18T12:10:06.130Z,97209.94
2022-11-18T12:13:01.612Z,97212.34
2022-11-18T12:15:34.256Z,97203.75
2022-11-18T12:18:36.307Z,97206.72
2022-11-18T12:21:02.930Z,97209.19
2022-11-18T12:23:31.443Z,97213.00
2022-11-18T12:26:11.549Z,97215.69
2022-11-18T12:28:43.759Z,97218.50
2022-11-18T12:31:16.356Z,97202.00
2022-11-18T12:33:53.182Z,97199.31
2022-11-18T12:36:34.996Z,97202.50
2022-11-18T12:39:26.331Z,97192.47
2022-11-18T12:42:12.589Z,97192.59
2022-11-18T12:44:40.176Z,97193.31
2022-11-18T12:47:08.759Z,97190.41
2022-11-18T12:49:38.201Z,97187.09
2022-11-18T12:52:45.342Z,97173.19
2022-11-18T12:55:32.194Z,97166.94
2022-11-18T12:57:58.818Z,97168.81
2022-11-18T13:00:25.589Z,97175.13
2022-11-18T13:02:55.165Z,97165.16
2022-11-18T13:05:33.509Z,97165.41
2022-11-18T13:08:15.920Z,97168.47
2022-11-18T13:11:14.689Z,97161.13
2022-11-18T13:13:42.475Z,97152.31
2022-11-18T13:16:40.722Z,97155.50
2022-11-18T13:19:07.562Z,97149.06
2022-11-18T13:21:53.169Z,97157.56
2022-11-18T13:24:22.143Z,97150.34
2022-11-18T13:26:54.682Z,97136.91
2022-11-18T13:29:36.431Z,97134.06
2022-11-18T13:32:03.043Z,97128.75
2022-11-18T13:34:31.391Z,97118.28
2022-11-18T13:37:00.031Z,97126.34
2022-11-18T13:39:32.337Z,97109.63
2022-11-18T13:42:00.916Z,97101.91
2022-11-18T13:44:38.605Z,97096.06
2022-11-18T13:47:42.657Z,97087.41
2022-11-18T13:50:12.596Z,97089.63
2022-11-18T13:52:58.209Z,97081.88
2022-11-18T13:55:33.822Z,97091.66
2022-11-18T13:58:20.325Z,97100.13
2022-11-18T14:01:05.479Z,97084.59
2022-11-18T14:03:52.322Z,97075.69
2022-11-18T14:06:39.837Z,97070.63
2022-11-18T14:09:25.937Z,97077.75
2022-11-18T14:12:02.100Z,97078.41
2022-11-18T14:14:34.749Z,97077.88
2022-11-18T14:17:25.893Z,97081.91
2022-11-18T14:19:58.402Z,97083.94
2022-11-18T14:22:27.773Z,97082.75
2022-11-18T14:25:23.760Z,97095.56
2022-11-18T14:27:57.740Z,97099.41
2022-11-18T14:30:32.107Z,97102.63
2022-11-18T14:33:20.844Z,97089.91
2022-11-18T14:35:58.227Z,97085.53
2022-11-18T14:38:52.016Z,97088.31
2022-11-18T14:41:44.307Z,97109.22
2022-11-18T14:44:13.692Z,97097.19
2022-11-18T14:46:43.291Z,97081.63
2022-11-18T14:49:16.947Z,97078.44
2022-11-18T14:51:44.681Z,97054.38
2022-11-18T14:54:18.184Z,97063.69
2022-11-18T14:56:49.636Z,97060.63
2022-11-18T14:59:18.106Z,97067.72
2022-11-18T15:01:45.963Z,97060.06
2022-11-18T15:04:13.385Z,97066.91
2022-11-18T15:06:40.341Z,97062.06
2022-11-18T15:09:08.053Z,97052.28
2022-11-18T15:11:35.579Z,97048.59
2022-11-18T15:14:03.405Z,97044.59
2022-11-18T15:16:32.780Z,97046.47
2022-11-18T15:19:05.023Z,97051.09
2022-11-18T15:21:31.966Z,97055.44
2022-11-18T15:23:58.552Z,97059.94
2022-11-18T15:26:28.836Z,97056.72
2022-11-18T15:28:57.584Z,97058.53
2022-11-18T15:31:25.467Z,97067.50
2022-11-18T15:33:52.818Z,97063.97
2022-11-18T15:36:24.273Z,97061.00
2022-11-18T15:38:52.222Z,97055.00
2022-11-18T15:41:30.399Z,97053.34
2022-11-18T15:43:58.757Z,97042.59
2022-11-18T15:46:27.634Z,97031.75
2022-11-18T15:48:56.319Z,97030.44
2022-11-18T15:51:24.719Z,97044.25
2022-11-18T15:53:51.595Z,97039.88
2022-11-18T15:56:21.291Z,97058.88
2022-11-18T15:59:06.097Z,97049.31
2022-11-18T16:01:35.085Z,97051.22
2022-11-18T16:04:02.652Z,97038.59
2022-11-18T16:06:29.626Z,97039.41
2022-11-18T16:08:59.884Z,97042.34
2022-11-18T16:11:47.415Z,97040.59
2022-11-18T16:14:17.000Z,97059.47
2022-11-18T16:16:45.488Z,97074.34
2022-11-18T16:19:14.689Z,97078.09
2022-11-18T16:21:44.087Z,97066.31
2022-11-18T16:24:25.928Z,97073.03
2022-11-18T16:26:52.651Z,97085.19
2022-11-18T16:29:20.779Z,97081.53
2022-11-18T16:31:53.000Z,97100.63
2022-11-18T16:34:24.600Z,97098.75
2022-11-18T16:36:53.578Z,97093.31
2022-11-18T16:39:25.892Z,97089.19
2022-11-18T16:41:54.862Z,97084.47
2022-11-18T16:44:21.543Z,97080.34
2022-11-18T16:46:53.341Z,97075.63
2022-11-18T16:49:23.671Z,97062.31
2022-11-18T16:51:52.564Z,97056.75
2022-11-18T16:54:24.471Z,97061.72
2022-11-18T16:56:53.160Z,97046.88
2022-11-18T16:59:33.040Z,97047.78
2022-11-18T17:02:00.556Z,97040.50
2022-11-18T17:04:29.091Z,97038.75
2022-11-18T17:06:56.319Z,97040.63
2022-11-18T17:09:24.632Z,97047.31
2022-11-18T17:11:53.502Z,97041.81
2022-11-18T17:14:21.805Z,97031.19
2022-11-18T17:16:49.449Z,97043.19
2022-11-18T17:19:18.569Z,97051.78
2022-11-18T17:21:46.328Z,97058.41
2022-11-18T17:24:15.574Z,97057.66
2022-11-18T17:26:42.518Z,97042.34
2022-11-18T17:29:13.093Z,97037.06
2022-11-18T17:31:41.508Z,97032.56
2022-11-18T17:34:13.108Z,97029.28
2022-11-18T17:36:40.179Z,97030.19
2022-11-18T17:39:07.026Z,97031.03
2022-11-18T17:41:52.304Z,97042.44
2022-11-18T17:44:19.356Z,97031.13
2022-11-18T17:46:47.362Z,97044.06
2022-11-18T17:49:18.093Z,97051.34
2022-11-18T17:51:46.128Z,97063.59
2022-11-18T17:54:14.299Z,97076.78
2022-11-18T17:56:41.144Z,97080.34
2022-11-18T17:59:07.806Z,97082.69
2022-11-18T18:01:34.600Z,97080.59
2022-11-18T18:04:01.428Z,97075.88
2022-11-18T18:06:28.023Z,97087.53
2022-11-18T18:08:58.511Z,97094.91
2022-11-18T18:11:26.126Z,97083.03
2022-11-18T18:14:11.527Z,97081.16
2022-11-18T18:16:44.357Z,97071.28
2022-11-18T18:19:13.753Z,97081.31
2022-11-18T18:21:40.785Z,97083.81
2022-11-18T18:24:08.276Z,97075.44
2022-11-18T18:26:35.013Z,97070.34
2022-11-18T18:29:02.329Z,97076.88
2022-11-18T18:31:29.307Z,97069.44
2022-11-18T18:33:56.060Z,97076.38
2022-11-18T18:36:25.266Z,97071.09
2022-11-18T18:38:52.602Z,97065.78
2022-11-18T18:41:21.813Z,97074.50
2022-11-18T18:43:49.566Z,97077.44
2022-11-18T18:46:34.010Z,97090.03
2022-11-18T18:49:00.804Z,97090.28
2022-11-18T18:51:28.448Z,97093.19
2022-11-18T18:53:56.629Z,97094.38
2022-11-18T18:56:23.455Z,97087.44
2022-11-18T18:58:50.125Z,97082.38
2022-11-18T19:01:19.871Z,97075.38
2022-11-18T19:03:46.942Z,97084.91
2022-11-18T19:06:53.172Z,97082.88
2022-11-18T19:09:21.604Z,97082.41
2022-11-18T19:12:07.075Z,97074.25
2022-11-18T19:14:35.133Z,97084.56
2022-11-18T19:17:06.668Z,97086.28
2022-11-18T19:19:56.301Z,97085.47
2022-11-18T19:22:23.111Z,97091.94
2022-11-18T19:24:51.006Z,97077.75
2022-11-18T19:27:23.789Z,97090.47
2022-11-18T19:29:50.542Z,97094.47
2022-11-18T19:32:17.207Z,97098.69
2022-11-18T19:34:43.807Z,97098.78
2022-11-18T19:37:10.761Z,97099.53
2022-11-18T19:39:38.633Z,97109.00
2022-11-18T19:42:05.845Z,97112.47
2022-11-18T19:44:32.465Z,97107.47
2022-11-18T19:46:59.266Z,97104.56
2022-11-18T19:49:25.913Z,97100.00
2022-11-18T19:51:52.579Z,97097.03
2022-11-18T19:54:19.212Z,97100.56
2022-11-18T19:56:45.899Z,97088.50
2022-11-18T19:59:13.109Z,97105.91
2022-11-18T20:01:40.261Z,97106.00
2022-11-18T20:04:06.997Z,97105.19
2022-11-18T20:06:35.595Z,97095.19
2022-11-18T20:09:03.673Z,97110.00
2022-11-18T20:11:30.268Z,97116.97
2022-11-18T20:13:56.937Z,97116.75
2022-11-18T20:16:25.509Z,97118.03
2022-11-18T20:18:54.265Z,97127.56
2022-11-18T20:21:21.990Z,97117.94
2022-11-18T20:23:50.902Z,97127.09
2022-11-18T20:26:20.341Z,97121.19
2022-11-18T20:28:52.869Z,97128.88
2022-11-18T20:31:23.211Z,97126.47
2022-11-18T20:33:52.000Z,97125.13
2022-11-18T20:36:21.258Z,97134.13
2022-11-18T20:38:56.385Z,97146.28
2022-11-18T20:41:24.134Z,97147.34
2022-11-18T20:43:50.968Z,97145.50
2022-11-18T20:46:20.922Z,97147.31
2022-11-18T20:48:49.024Z,97149.19
2022-11-18T20:51:19.386Z,97132.72
2022-11-18T20:53:46.282Z,97137.06
2022-11-18T20:56:15.820Z,97153.31
2022-11-18T20:58:42.545Z,97145.50
2022-11-18T21:01:15.124Z,97152.56
2022-11-18T21:03:43.041Z,97143.31
2022-11-18T21:06:14.255Z,97138.13
2022-11-18T21:08:42.438Z,97149.69
2022-11-18T21:11:13.542Z,97141.75
2022-11-18T21:13:59.182Z,97139.44
2022-11-18T21:16:27.357Z,97132.72
2022-11-18T21:18:54.676Z,97147.78
2022-11-18T21:21:39.727Z,97142.28
2022-11-18T21:24:07.067Z,97146.31
2022-11-18T21:26:35.181Z,97145.63
2022-11-18T21:29:03.730Z,97154.78
2022-11-18T21:31:30.956Z,97160.34
2022-11-18T21:33:57.739Z,97158.34
2022-11-18T21:36:25.933Z,97159.38
2022-11-18T21:38:52.970Z,97163.06
2022-11-18T21:41:19.771Z,97156.34
2022-11-18T21:46:35.099Z,97156.88
2022-11-18T21:49:02.625Z,97165.78
2022-11-18T21:51:31.597Z,97161.31
2022-11-18T21:53:59.503Z,97176.72
2022-11-18T21:56:31.383Z,97168.50
2022-11-18T21:59:00.896Z,97162.50
2022-11-18T22:01:30.167Z,97169.78
2022-11-18T22:03:58.727Z,97166.66
2022-11-18T22:06:29.626Z,97160.97
2022-11-18T22:08:56.611Z,97166.19
2022-11-18T22:11:24.184Z,97165.13
2022-11-18T22:13:52.132Z,97172.09
2022-11-18T22:16:24.271Z,97154.69
2022-11-18T22:18:58.102Z,97151.28
2022-11-18T22:21:27.103Z,97150.31
2022-11-18T22:23:57.958Z,97164.91
2022-11-18T22:26:24.544Z,97166.00
2022-11-18T22:28:56.800Z,97171.41
2022-11-18T22:31:25.416Z,97169.38
2022-11-18T22:33:52.650Z,97161.94
2022-11-18T22:36:21.552Z,97174.16
2022-11-18T22:38:48.453Z,97183.63
2022-11-18T22:41:34.976Z,97184.34
2022-11-18T22:44:07.392Z,97202.81
2022-11-18T22:46:38.782Z,97206.22
2022-11-18T22:49:07.438Z,97209.75
2022-11-18T22:51:35.051Z,97208.25
2022-11-18T22:54:36.387Z,97204.69
2022-11-18T22:56:48.537Z,97203.78
2022-11-18T22:59:15.177Z,97207.69
2022-11-18T23:01:41.924Z,97211.00
2022-11-18T23:04:08.529Z,97223.34
2022-11-18T23:06:35.237Z,97221.66
2022-11-18T23:09:02.386Z,97226.63
2022-11-18T23:11:48.696Z,97223.47
2022-11-18T23:14:15.521Z,97222.75
2022-11-18T23:16:42.821Z,97227.25
2022-11-18T23:19:17.444Z,97217.13
2022-11-18T23:21:45.388Z,97214.50
2022-11-18T23:24:13.827Z,97208.09
2022-11-18T23:26:41.078Z,97211.28
2022-11-18T23:29:08.035Z,97213.50
2022-11-18T23:31:34.667Z,97227.91
2022-11-18T23:34:01.581Z,97225.16
2022-11-18T23:36:28.593Z,97238.09
2022-11-18T23:38:55.287Z,97242.16
2022-11-18T23:41:22.349Z,97248.97
2022-11-18T23:43:49.633Z,97245.91
2022-11-18T23:46:17.840Z,97236.50
2022-11-18T23:48:45.490Z,97244.50
2022-11-18T23:51:17.517Z,97248.41
2022-11-18T23:53:45.499Z,97269.38
2022-11-18T23:56:15.273Z,97263.69
2022-11-18T23:58:44.350Z,97279.84
